sensor_id;sensor_type;location;lat;lon;timestamp;P1;durP1;ratioP1;P2;durP2;ratioP2
71763;SDS011;59602;52.142;5.408;2023-08-24T10:49:09;9.38;;;5.95;;
71763;SDS011;59602;52.142;5.408;2023-08-24T11:01:01;11.33;;;7.17;;
71763;SDS011;59602;52.142;5.408;2023-08-24T11:07:06;12.05;;;6.80;;
71763;SDS011;59602;52.142;5.408;2023-08-24T11:09:45;11.38;;;7.30;;
71763;SDS011;59602;52.142;5.408;2023-08-24T11:12:13;10.20;;;7.65;;
71763;SDS011;59602;52.142;5.408;2023-08-24T11:14:51;11.30;;;8.30;;
71763;SDS011;59602;52.142;5.408;2023-08-24T11:17:25;12.85;;;8.52;;
71763;SDS011;59602;52.142;5.408;2023-08-24T11:20:13;13.15;;;8.50;;
71763;SDS011;59602;52.142;5.408;2023-08-24T11:23:19;15.93;;;7.85;;
71763;SDS011;59602;52.142;5.408;2023-08-24T11:28:42;11.07;;;7.90;;
71763;SDS011;59602;52.142;5.408;2023-08-24T11:31:09;10.32;;;7.43;;
71763;SDS011;59602;52.142;5.408;2023-08-24T11:34:14;12.63;;;8.68;;
71763;SDS011;59602;52.142;5.408;2023-08-24T11:39:58;12.70;;;8.38;;
71763;SDS011;59602;52.142;5.408;2023-08-24T11:43:06;14.37;;;9.47;;
71763;SDS011;59602;52.142;5.408;2023-08-24T11:49:28;12.40;;;8.48;;
71763;SDS011;59602;52.142;5.408;2023-08-24T11:54:50;11.13;;;8.63;;
71763;SDS011;59602;52.142;5.408;2023-08-24T11:57:18;13.10;;;9.23;;
71763;SDS011;59602;52.142;5.408;2023-08-24T11:59:44;10.63;;;8.88;;
71763;SDS011;59602;52.142;5.408;2023-08-24T12:05:24;14.07;;;8.40;;
71763;SDS011;59602;52.142;5.408;2023-08-24T12:08:30;10.40;;;7.40;;
71763;SDS011;59602;52.142;5.408;2023-08-24T12:18:30;14.52;;;8.73;;
71763;SDS011;59602;52.142;5.408;2023-08-24T12:21:00;12.93;;;9.98;;
71763;SDS011;59602;52.142;5.408;2023-08-24T12:23:58;14.10;;;8.70;;
71763;SDS011;59602;52.142;5.408;2023-08-24T12:26:27;13.27;;;8.53;;
71763;SDS011;59602;52.142;5.408;2023-08-24T12:28:55;13.82;;;8.55;;
71763;SDS011;59602;52.142;5.408;2023-08-24T12:31:42;14.10;;;8.95;;
71763;SDS011;59602;52.142;5.408;2023-08-24T12:34:25;16.85;;;9.18;;
71763;SDS011;59602;52.142;5.408;2023-08-24T12:37:17;14.30;;;10.13;;
71763;SDS011;59602;52.142;5.408;2023-08-24T12:39:44;14.03;;;9.47;;
71763;SDS011;59602;52.142;5.408;2023-08-24T12:42:14;13.45;;;9.77;;
71763;SDS011;59602;52.142;5.408;2023-08-24T12:45:04;15.48;;;10.25;;
71763;SDS011;59602;52.142;5.408;2023-08-24T12:48:07;13.43;;;9.50;;
71763;SDS011;59602;52.142;5.408;2023-08-24T12:50:58;14.30;;;10.88;;
71763;SDS011;59602;52.142;5.408;2023-08-24T12:53:55;15.20;;;10.77;;
71763;SDS011;59602;52.142;5.408;2023-08-24T12:56:41;11.43;;;9.88;;
71763;SDS011;59602;52.142;5.408;2023-08-24T12:59:08;15.73;;;10.52;;
71763;SDS011;59602;52.142;5.408;2023-08-24T13:01:38;13.68;;;10.45;;
71763;SDS011;59602;52.142;5.408;2023-08-24T13:04:05;15.05;;;10.15;;
71763;SDS011;59602;52.142;5.408;2023-08-24T13:06:35;11.53;;;9.80;;
71763;SDS011;59602;52.142;5.408;2023-08-24T13:09:02;15.77;;;11.02;;
71763;SDS011;59602;52.142;5.408;2023-08-24T13:11:29;16.13;;;10.10;;
71763;SDS011;59602;52.142;5.408;2023-08-24T13:13:56;12.75;;;10.00;;
71763;SDS011;59602;52.142;5.408;2023-08-24T13:16:23;18.55;;;9.20;;
71763;SDS011;59602;52.142;5.408;2023-08-24T13:18:49;16.33;;;10.07;;
71763;SDS011;59602;52.142;5.408;2023-08-24T13:21:17;13.20;;;9.63;;
71763;SDS011;59602;52.142;5.408;2023-08-24T13:23:52;11.50;;;9.30;;
71763;SDS011;59602;52.142;5.408;2023-08-24T13:26:23;11.43;;;9.38;;
71763;SDS011;59602;52.142;5.408;2023-08-24T13:28:50;11.93;;;8.90;;
71763;SDS011;59602;52.142;5.408;2023-08-24T13:31:18;15.50;;;10.03;;
71763;SDS011;59602;52.142;5.408;2023-08-24T13:33:46;13.52;;;10.02;;
71763;SDS011;59602;52.142;5.408;2023-08-24T13:36:13;15.75;;;10.27;;
71763;SDS011;59602;52.142;5.408;2023-08-24T13:38:43;13.45;;;9.95;;
71763;SDS011;59602;52.142;5.408;2023-08-24T13:41:45;13.80;;;9.93;;
71763;SDS011;59602;52.142;5.408;2023-08-24T13:44:14;16.00;;;10.70;;
71763;SDS011;59602;52.142;5.408;2023-08-24T13:46:41;15.07;;;10.73;;
71763;SDS011;59602;52.142;5.408;2023-08-24T13:49:08;15.98;;;11.48;;
71763;SDS011;59602;52.142;5.408;2023-08-24T13:52:06;17.73;;;11.60;;
71763;SDS011;59602;52.142;5.408;2023-08-24T13:54:57;15.57;;;10.73;;
71763;SDS011;59602;52.142;5.408;2023-08-24T13:57:37;16.27;;;11.23;;
71763;SDS011;59602;52.142;5.408;2023-08-24T14:00:08;16.52;;;12.45;;
71763;SDS011;59602;52.142;5.408;2023-08-24T14:02:38;16.70;;;11.88;;
71763;SDS011;59602;52.142;5.408;2023-08-24T14:05:39;14.55;;;12.00;;
71763;SDS011;59602;52.142;5.408;2023-08-24T14:08:42;12.48;;;10.82;;
71763;SDS011;59602;52.142;5.408;2023-08-24T14:11:38;15.47;;;12.23;;
71763;SDS011;59602;52.142;5.408;2023-08-24T14:17:27;18.58;;;13.40;;
71763;SDS011;59602;52.142;5.408;2023-08-24T14:20:12;17.77;;;13.82;;
71763;SDS011;59602;52.142;5.408;2023-08-24T14:22:41;19.05;;;13.55;;
71763;SDS011;59602;52.142;5.408;2023-08-24T14:25:42;16.83;;;13.50;;
71763;SDS011;59602;52.142;5.408;2023-08-24T14:28:23;18.75;;;14.43;;
71763;SDS011;59602;52.142;5.408;2023-08-24T14:31:33;19.23;;;14.23;;
71763;SDS011;59602;52.142;5.408;2023-08-24T14:34:27;22.77;;;15.38;;
71763;SDS011;59602;52.142;5.408;2023-08-24T14:36:54;21.48;;;14.82;;
71763;SDS011;59602;52.142;5.408;2023-08-24T14:39:27;18.20;;;14.47;;
71763;SDS011;59602;52.142;5.408;2023-08-24T14:41:54;18.38;;;14.70;;
71763;SDS011;59602;52.142;5.408;2023-08-24T14:44:26;20.40;;;14.55;;
71763;SDS011;59602;52.142;5.408;2023-08-24T14:46:58;20.23;;;15.00;;
71763;SDS011;59602;52.142;5.408;2023-08-24T14:49:30;17.70;;;13.43;;
71763;SDS011;59602;52.142;5.408;2023-08-24T14:55:10;19.98;;;13.52;;
71763;SDS011;59602;52.142;5.408;2023-08-24T14:57:54;19.80;;;13.13;;
71763;SDS011;59602;52.142;5.408;2023-08-24T15:00:22;17.90;;;12.75;;
71763;SDS011;59602;52.142;5.408;2023-08-24T15:02:57;16.13;;;10.65;;
71763;SDS011;59602;52.142;5.408;2023-08-24T15:05:42;15.50;;;11.37;;
71763;SDS011;59602;52.142;5.408;2023-08-24T15:08:10;16.70;;;11.30;;
71763;SDS011;59602;52.142;5.408;2023-08-24T15:10:40;13.18;;;10.25;;
71763;SDS011;59602;52.142;5.408;2023-08-24T15:13:15;14.27;;;9.70;;
71763;SDS011;59602;52.142;5.408;2023-08-24T15:16:03;13.73;;;9.73;;
71763;SDS011;59602;52.142;5.408;2023-08-24T15:21:37;12.63;;;8.63;;
71763;SDS011;59602;52.142;5.408;2023-08-24T15:24:39;12.60;;;8.73;;
71763;SDS011;59602;52.142;5.408;2023-08-24T15:27:26;10.20;;;8.15;;
71763;SDS011;59602;52.142;5.408;2023-08-24T15:34:11;10.70;;;7.17;;
71763;SDS011;59602;52.142;5.408;2023-08-24T15:37:27;14.13;;;8.13;;
71763;SDS011;59602;52.142;5.408;2023-08-24T15:40:26;10.60;;;7.10;;
71763;SDS011;59602;52.142;5.408;2023-08-24T15:43:58;12.93;;;8.75;;
71763;SDS011;59602;52.142;5.408;2023-08-24T15:47:40;13.07;;;9.32;;
71763;SDS011;59602;52.142;5.408;2023-08-24T15:50:39;12.27;;;8.80;;
71763;SDS011;59602;52.142;5.408;2023-08-24T15:53:36;12.00;;;9.32;;
71763;SDS011;59602;52.142;5.408;2023-08-24T16:00:03;11.85;;;7.65;;
71763;SDS011;59602;52.142;5.408;2023-08-24T16:03:02;9.18;;;6.55;;
71763;SDS011;59602;52.142;5.408;2023-08-24T16:06:35;8.73;;;5.70;;
71763;SDS011;59602;52.142;5.408;2023-08-24T16:09:18;8.57;;;5.63;;
71763;SDS011;59602;52.142;5.408;2023-08-24T16:12:27;6.90;;;5.30;;
71763;SDS011;59602;52.142;5.408;2023-08-24T16:15:30;9.27;;;5.80;;
71763;SDS011;59602;52.142;5.408;2023-08-24T16:18:46;9.25;;;5.57;;
71763;SDS011;59602;52.142;5.408;2023-08-24T16:28:51;9.25;;;4.70;;
71763;SDS011;59602;52.142;5.408;2023-08-24T16:32:12;6.40;;;3.92;;
71763;SDS011;59602;52.142;5.408;2023-08-24T16:34:56;5.53;;;3.92;;
71763;SDS011;59602;52.142;5.408;2023-08-24T16:37:48;6.70;;;3.50;;
71763;SDS011;59602;52.142;5.408;2023-08-24T16:41:29;6.30;;;3.33;;
71763;SDS011;59602;52.142;5.408;2023-08-24T16:44:37;5.43;;;3.20;;
71763;SDS011;59602;52.142;5.408;2023-08-24T16:47:57;6.18;;;3.33;;
71763;SDS011;59602;52.142;5.408;2023-08-24T16:54:23;10.50;;;4.20;;
71763;SDS011;59602;52.142;5.408;2023-08-24T17:02:03;5.88;;;3.10;;
71763;SDS011;59602;52.142;5.408;2023-08-24T17:05:16;4.57;;;3.00;;
71763;SDS011;59602;52.142;5.408;2023-08-24T17:08:41;6.13;;;2.78;;
71763;SDS011;59602;52.142;5.408;2023-08-24T17:18:52;6.72;;;2.40;;
71763;SDS011;59602;52.142;5.408;2023-08-24T17:21:21;4.28;;;2.45;;
71763;SDS011;59602;52.142;5.408;2023-08-24T17:27:00;5.00;;;2.60;;
71763;SDS011;59602;52.142;5.408;2023-08-24T17:30:00;4.60;;;2.20;;
71763;SDS011;59602;52.142;5.408;2023-08-24T17:35:56;3.20;;;2.10;;
71763;SDS011;59602;52.142;5.408;2023-08-24T17:38:58;6.47;;;2.30;;
71763;SDS011;59602;52.142;5.408;2023-08-24T17:42:04;7.53;;;2.33;;
71763;SDS011;59602;52.142;5.408;2023-08-24T17:44:31;3.58;;;1.95;;
71763;SDS011;59602;52.142;5.408;2023-08-24T17:47:38;16.10;;;4.32;;
71763;SDS011;59602;52.142;5.408;2023-08-24T17:50:27;5.30;;;2.33;;
71763;SDS011;59602;52.142;5.408;2023-08-24T17:52:56;4.15;;;1.65;;
71763;SDS011;59602;52.142;5.408;2023-08-24T17:59:37;3.63;;;1.90;;
71763;SDS011;59602;52.142;5.408;2023-08-24T18:02:11;3.03;;;1.92;;
71763;SDS011;59602;52.142;5.408;2023-08-24T18:04:43;5.55;;;2.60;;
71763;SDS011;59602;52.142;5.408;2023-08-24T18:07:26;4.53;;;1.65;;
71763;SDS011;59602;52.142;5.408;2023-08-24T18:09:58;7.80;;;3.40;;
71763;SDS011;59602;52.142;5.408;2023-08-24T18:12:25;6.00;;;2.63;;
71763;SDS011;59602;52.142;5.408;2023-08-24T18:14:52;3.70;;;2.47;;
71763;SDS011;59602;52.142;5.408;2023-08-24T18:17:35;7.18;;;2.35;;
71763;SDS011;59602;52.142;5.408;2023-08-24T18:20:03;3.35;;;1.50;;
71763;SDS011;59602;52.142;5.408;2023-08-24T18:22:31;5.97;;;1.87;;
71763;SDS011;59602;52.142;5.408;2023-08-24T18:24:59;3.85;;;1.90;;
71763;SDS011;59602;52.142;5.408;2023-08-24T18:28:21;3.80;;;1.80;;
71763;SDS011;59602;52.142;5.408;2023-08-24T18:31:11;4.63;;;2.22;;
71763;SDS011;59602;52.142;5.408;2023-08-24T18:38:20;6.77;;;2.00;;
71763;SDS011;59602;52.142;5.408;2023-08-24T18:41:20;7.25;;;2.17;;
71763;SDS011;59602;52.142;5.408;2023-08-24T18:44:21;5.57;;;1.90;;
71763;SDS011;59602;52.142;5.408;2023-08-24T18:47:23;5.38;;;2.13;;
71763;SDS011;59602;52.142;5.408;2023-08-24T18:50:09;3.45;;;1.52;;
71763;SDS011;59602;52.142;5.408;2023-08-24T18:52:41;9.00;;;2.30;;
71763;SDS011;59602;52.142;5.408;2023-08-24T18:55:20;4.95;;;1.70;;
71763;SDS011;59602;52.142;5.408;2023-08-24T18:57:47;3.35;;;1.58;;
71763;SDS011;59602;52.142;5.408;2023-08-24T19:00:15;2.70;;;1.67;;
71763;SDS011;59602;52.142;5.408;2023-08-24T19:02:42;2.80;;;1.70;;
71763;SDS011;59602;52.142;5.408;2023-08-24T19:05:09;4.20;;;1.90;;
71763;SDS011;59602;52.142;5.408;2023-08-24T19:07:36;5.90;;;1.90;;
71763;SDS011;59602;52.142;5.408;2023-08-24T19:10:04;4.00;;;1.90;;
71763;SDS011;59602;52.142;5.408;2023-08-24T19:12:31;3.63;;;1.80;;
71763;SDS011;59602;52.142;5.408;2023-08-24T19:14:57;2.50;;;2.00;;
71763;SDS011;59602;52.142;5.408;2023-08-24T19:17:24;3.30;;;1.70;;
71763;SDS011;59602;52.142;5.408;2023-08-24T19:19:51;5.03;;;2.42;;
71763;SDS011;59602;52.142;5.408;2023-08-24T19:22:17;2.83;;;1.50;;
71763;SDS011;59602;52.142;5.408;2023-08-24T19:24:44;4.65;;;2.28;;
71763;SDS011;59602;52.142;5.408;2023-08-24T19:27:11;4.85;;;1.98;;
71763;SDS011;59602;52.142;5.408;2023-08-24T19:29:38;3.47;;;1.90;;
71763;SDS011;59602;52.142;5.408;2023-08-24T19:32:05;5.63;;;2.13;;
71763;SDS011;59602;52.142;5.408;2023-08-24T19:34:32;3.80;;;1.75;;
71763;SDS011;59602;52.142;5.408;2023-08-24T19:36:59;3.53;;;1.88;;
71763;SDS011;59602;52.142;5.408;2023-08-24T19:39:25;5.40;;;2.20;;
71763;SDS011;59602;52.142;5.408;2023-08-24T19:41:52;5.73;;;2.43;;
71763;SDS011;59602;52.142;5.408;2023-08-24T19:44:25;7.75;;;2.20;;
71763;SDS011;59602;52.142;5.408;2023-08-24T19:46:53;3.90;;;2.40;;
71763;SDS011;59602;52.142;5.408;2023-08-24T19:49:19;4.28;;;1.88;;
71763;SDS011;59602;52.142;5.408;2023-08-24T19:51:46;4.55;;;2.10;;
71763;SDS011;59602;52.142;5.408;2023-08-24T19:54:13;3.57;;;2.27;;
71763;SDS011;59602;52.142;5.408;2023-08-24T19:56:40;4.20;;;2.58;;
71763;SDS011;59602;52.142;5.408;2023-08-24T19:59:08;4.68;;;3.00;;
71763;SDS011;59602;52.142;5.408;2023-08-24T20:01:35;5.80;;;3.13;;
71763;SDS011;59602;52.142;5.408;2023-08-24T20:04:02;6.82;;;3.00;;
71763;SDS011;59602;52.142;5.408;2023-08-24T20:06:32;6.27;;;3.33;;
71763;SDS011;59602;52.142;5.408;2023-08-24T20:08:59;6.13;;;3.40;;
71763;SDS011;59602;52.142;5.408;2023-08-24T20:11:25;6.32;;;3.00;;
71763;SDS011;59602;52.142;5.408;2023-08-24T20:13:56;6.32;;;3.35;;
71763;SDS011;59602;52.142;5.408;2023-08-24T20:16:25;5.85;;;3.40;;
71763;SDS011;59602;52.142;5.408;2023-08-24T20:18:51;5.43;;;3.73;;
71763;SDS011;59602;52.142;5.408;2023-08-24T20:21:18;4.18;;;3.30;;
71763;SDS011;59602;52.142;5.408;2023-08-24T20:23:44;5.88;;;3.30;;
71763;SDS011;59602;52.142;5.408;2023-08-24T20:26:11;5.75;;;3.75;;
71763;SDS011;59602;52.142;5.408;2023-08-24T20:28:39;6.95;;;3.22;;
71763;SDS011;59602;52.142;5.408;2023-08-24T20:31:07;4.53;;;3.30;;
71763;SDS011;59602;52.142;5.408;2023-08-24T20:33:34;6.22;;;3.20;;
71763;SDS011;59602;52.142;5.408;2023-08-24T20:36:02;4.45;;;3.40;;
71763;SDS011;59602;52.142;5.408;2023-08-24T20:38:29;11.00;;;3.80;;
71763;SDS011;59602;52.142;5.408;2023-08-24T20:40:59;4.93;;;3.63;;
71763;SDS011;59602;52.142;5.408;2023-08-24T20:43:28;7.03;;;4.17;;
71763;SDS011;59602;52.142;5.408;2023-08-24T20:45:55;6.80;;;4.47;;
71763;SDS011;59602;52.142;5.408;2023-08-24T20:48:22;5.22;;;4.18;;
71763;SDS011;59602;52.142;5.408;2023-08-24T20:50:48;5.95;;;3.88;;
71763;SDS011;59602;52.142;5.408;2023-08-24T20:53:15;6.25;;;4.05;;
71763;SDS011;59602;52.142;5.408;2023-08-24T20:55:42;6.47;;;4.40;;
71763;SDS011;59602;52.142;5.408;2023-08-24T20:58:08;5.40;;;3.67;;
71763;SDS011;59602;52.142;5.408;2023-08-24T21:00:35;6.20;;;4.22;;
71763;SDS011;59602;52.142;5.408;2023-08-24T21:03:04;7.72;;;4.07;;
71763;SDS011;59602;52.142;5.408;2023-08-24T21:05:32;5.38;;;3.90;;
71763;SDS011;59602;52.142;5.408;2023-08-24T21:08:01;5.20;;;3.67;;
71763;SDS011;59602;52.142;5.408;2023-08-24T21:10:28;6.10;;;4.05;;
71763;SDS011;59602;52.142;5.408;2023-08-24T21:12:57;7.90;;;4.28;;
71763;SDS011;59602;52.142;5.408;2023-08-24T21:15:26;5.10;;;3.60;;
71763;SDS011;59602;52.142;5.408;2023-08-24T21:17:54;5.18;;;3.70;;
71763;SDS011;59602;52.142;5.408;2023-08-24T21:20:22;5.33;;;3.90;;
71763;SDS011;59602;52.142;5.408;2023-08-24T21:22:49;6.03;;;3.88;;
71763;SDS011;59602;52.142;5.408;2023-08-24T21:25:46;6.35;;;3.92;;
71763;SDS011;59602;52.142;5.408;2023-08-24T21:28:12;8.00;;;3.88;;
71763;SDS011;59602;52.142;5.408;2023-08-24T21:30:39;5.35;;;3.92;;
71763;SDS011;59602;52.142;5.408;2023-08-24T21:33:09;7.30;;;4.40;;
71763;SDS011;59602;52.142;5.408;2023-08-24T21:35:39;7.13;;;4.30;;
71763;SDS011;59602;52.142;5.408;2023-08-24T21:38:06;5.97;;;4.40;;
71763;SDS011;59602;52.142;5.408;2023-08-24T21:40:56;5.90;;;4.32;;
71763;SDS011;59602;52.142;5.408;2023-08-24T21:43:26;6.43;;;4.50;;
71763;SDS011;59602;52.142;5.408;2023-08-24T21:45:54;7.87;;;4.77;;
71763;SDS011;59602;52.142;5.408;2023-08-24T21:48:48;9.35;;;4.80;;
71763;SDS011;59602;52.142;5.408;2023-08-24T21:51:17;8.98;;;4.70;;
71763;SDS011;59602;52.142;5.408;2023-08-24T21:53:44;5.68;;;4.60;;
71763;SDS011;59602;52.142;5.408;2023-08-24T21:56:14;6.47;;;4.57;;
71763;SDS011;59602;52.142;5.408;2023-08-24T21:58:45;7.20;;;4.90;;
71763;SDS011;59602;52.142;5.408;2023-08-24T22:01:18;8.15;;;4.85;;
71763;SDS011;59602;52.142;5.408;2023-08-24T22:03:50;6.60;;;5.07;;
71763;SDS011;59602;52.142;5.408;2023-08-24T22:06:20;7.53;;;5.40;;
71763;SDS011;59602;52.142;5.408;2023-08-24T22:08:48;9.15;;;5.10;;
71763;SDS011;59602;52.142;5.408;2023-08-24T22:11:15;8.47;;;5.33;;
71763;SDS011;59602;52.142;5.408;2023-08-24T22:13:42;7.38;;;5.43;;
71763;SDS011;59602;52.142;5.408;2023-08-24T22:16:09;8.48;;;6.20;;
71763;SDS011;59602;52.142;5.408;2023-08-24T22:18:36;6.72;;;5.40;;
71763;SDS011;59602;52.142;5.408;2023-08-24T22:21:03;7.53;;;6.10;;
71763;SDS011;59602;52.142;5.408;2023-08-24T22:23:33;9.87;;;5.57;;
71763;SDS011;59602;52.142;5.408;2023-08-24T22:26:03;8.68;;;5.18;;
71763;SDS011;59602;52.142;5.408;2023-08-24T22:28:32;6.88;;;5.40;;
71763;SDS011;59602;52.142;5.408;2023-08-24T22:30:59;7.13;;;5.50;;
71763;SDS011;59602;52.142;5.408;2023-08-24T22:33:28;9.02;;;6.07;;
71763;SDS011;59602;52.142;5.408;2023-08-24T22:36:03;6.67;;;5.33;;
71763;SDS011;59602;52.142;5.408;2023-08-24T22:38:30;8.10;;;5.60;;
71763;SDS011;59602;52.142;5.408;2023-08-24T22:41:12;7.45;;;5.20;;
71763;SDS011;59602;52.142;5.408;2023-08-24T22:43:43;8.68;;;5.50;;
71763;SDS011;59602;52.142;5.408;2023-08-24T22:46:12;6.80;;;4.95;;
71763;SDS011;59602;52.142;5.408;2023-08-24T22:48:39;9.03;;;5.27;;
71763;SDS011;59602;52.142;5.408;2023-08-24T22:51:05;6.90;;;5.43;;
71763;SDS011;59602;52.142;5.408;2023-08-24T22:53:33;8.70;;;5.35;;
71763;SDS011;59602;52.142;5.408;2023-08-24T22:55:59;6.32;;;4.95;;
71763;SDS011;59602;52.142;5.408;2023-08-24T22:58:26;6.78;;;5.20;;
71763;SDS011;59602;52.142;5.408;2023-08-24T23:00:53;9.30;;;5.27;;
71763;SDS011;59602;52.142;5.408;2023-08-24T23:03:21;7.60;;;5.47;;
71763;SDS011;59602;52.142;5.408;2023-08-24T23:06:03;8.18;;;5.07;;
71763;SDS011;59602;52.142;5.408;2023-08-24T23:08:30;8.02;;;5.63;;
71763;SDS011;59602;52.142;5.408;2023-08-24T23:10:57;7.43;;;5.60;;
71763;SDS011;59602;52.142;5.408;2023-08-24T23:13:24;6.63;;;5.40;;
71763;SDS011;59602;52.142;5.408;2023-08-24T23:15:50;8.70;;;5.50;;
71763;SDS011;59602;52.142;5.408;2023-08-24T23:18:17;8.65;;;5.78;;
71763;SDS011;59602;52.142;5.408;2023-08-24T23:20:44;11.82;;;5.88;;
71763;SDS011;59602;52.142;5.408;2023-08-24T23:23:16;7.13;;;5.40;;
71763;SDS011;59602;52.142;5.408;2023-08-24T23:25:48;8.73;;;5.97;;
71763;SDS011;59602;52.142;5.408;2023-08-24T23:28:38;7.72;;;5.30;;
71763;SDS011;59602;52.142;5.408;2023-08-24T23:31:06;8.27;;;5.50;;
71763;SDS011;59602;52.142;5.408;2023-08-24T23:33:33;8.27;;;5.60;;
71763;SDS011;59602;52.142;5.408;2023-08-24T23:36:00;9.13;;;5.95;;
71763;SDS011;59602;52.142;5.408;2023-08-24T23:38:27;7.43;;;5.97;;
71763;SDS011;59602;52.142;5.408;2023-08-24T23:40:57;7.85;;;5.65;;
71763;SDS011;59602;52.142;5.408;2023-08-24T23:43:28;9.63;;;6.20;;
71763;SDS011;59602;52.142;5.408;2023-08-24T23:46:04;8.38;;;5.45;;
71763;SDS011;59602;52.142;5.408;2023-08-24T23:48:33;9.88;;;5.90;;
71763;SDS011;59602;52.142;5.408;2023-08-24T23:51:01;8.80;;;5.73;;
71763;SDS011;59602;52.142;5.408;2023-08-24T23:53:27;10.88;;;6.10;;
71763;SDS011;59602;52.142;5.408;2023-08-24T23:55:55;8.25;;;6.15;;
71763;SDS011;59602;52.142;5.408;2023-08-24T23:58:22;9.23;;;5.78;;
